createdAt,value
2022-12-27T00:01:43.150Z,21.62
2022-12-27T00:04:46.310Z,21.61
2022-12-27T00:07:49.394Z,21.53
2022-12-27T00:10:53.878Z,21.59
2022-12-27T00:13:56.976Z,21.58
2022-12-27T00:16:59.982Z,21.40
2022-12-27T00:20:10.813Z,21.48
2022-12-27T00:23:14.526Z,21.41
2022-12-27T00:26:20.620Z,21.47
2022-12-27T00:29:23.637Z,21.56
2022-12-27T00:32:26.672Z,21.54
2022-12-27T00:35:29.746Z,21.55
2022-12-27T00:38:33.281Z,21.50
2022-12-27T00:41:37.716Z,21.55
2022-12-27T00:44:40.840Z,21.55
2022-12-27T00:47:43.842Z,21.54
2022-12-27T00:50:47.758Z,21.51
2022-12-27T00:53:51.523Z,21.55
2022-12-27T00:56:56.013Z,21.56
2022-12-27T01:00:00.574Z,21.55
2022-12-27T01:03:05.443Z,21.49
2022-12-27T01:06:10.079Z,21.49
2022-12-27T01:09:13.216Z,21.51
2022-12-27T01:12:17.799Z,21.48
2022-12-27T01:15:20.845Z,21.49
2022-12-27T01:18:24.159Z,21.51
2022-12-27T01:21:30.994Z,21.48
2022-12-27T01:24:34.936Z,21.42
2022-12-27T01:27:39.370Z,21.48
2022-12-27T01:30:42.389Z,21.49
2022-12-27T01:33:46.048Z,21.49
2022-12-27T01:36:49.134Z,21.49
2022-12-27T01:39:52.116Z,21.49
2022-12-27T01:42:57.112Z,21.49
2022-12-27T01:46:00.230Z,21.49
2022-12-27T01:49:05.281Z,21.49
2022-12-27T01:52:11.060Z,21.48
2022-12-27T01:55:25.184Z,21.48
2022-12-27T01:58:35.861Z,21.45
2022-12-27T02:01:44.475Z,21.49
2022-12-27T02:04:47.568Z,21.49
2022-12-27T02:08:10.068Z,21.46
2022-12-27T02:11:14.950Z,21.48
2022-12-27T02:14:27.626Z,21.47
2022-12-27T02:17:33.596Z,21.45
2022-12-27T02:21:01.053Z,21.48
2022-12-27T02:24:31.379Z,21.47
2022-12-27T02:27:50.241Z,21.48
2022-12-27T02:31:00.584Z,21.47
2022-12-27T02:34:11.552Z,21.45
2022-12-27T02:37:15.191Z,21.20
2022-12-27T02:40:40.636Z,21.33
2022-12-27T02:44:01.338Z,21.46
2022-12-27T02:47:30.532Z,21.43
2022-12-27T02:51:03.472Z,21.38
2022-12-27T02:54:17.953Z,21.42
2022-12-27T02:57:26.586Z,21.45
2022-12-27T03:01:09.130Z,21.44
2022-12-27T03:04:29.964Z,21.44
2022-12-27T03:07:39.453Z,21.44
2022-12-27T03:11:07.560Z,21.41
2022-12-27T03:14:37.379Z,21.44
2022-12-27T03:17:47.014Z,21.44
2022-12-27T03:21:09.345Z,21.31
2022-12-27T03:24:31.103Z,21.45
2022-12-27T03:27:38.134Z,21.43
2022-12-27T03:31:07.928Z,21.42
2022-12-27T03:34:32.119Z,21.44
2022-12-27T03:37:59.314Z,21.41
2022-12-27T03:41:21.770Z,21.43
2022-12-27T03:44:25.550Z,21.43
2022-12-27T03:47:35.791Z,21.40
2022-12-27T03:50:45.078Z,21.42
2022-12-27T03:53:53.351Z,21.32
2022-12-27T03:56:58.505Z,21.42
2022-12-27T04:00:01.677Z,21.32
2022-12-27T04:03:05.714Z,21.34
2022-12-27T04:06:08.877Z,21.41
2022-12-27T04:09:30.881Z,21.40
2022-12-27T04:12:51.469Z,21.39
2022-12-27T04:16:11.960Z,21.39
2022-12-27T04:19:32.281Z,21.38
2022-12-27T04:22:52.681Z,21.40
2022-12-27T04:26:14.576Z,21.40
2022-12-27T04:29:35.215Z,21.37
2022-12-27T04:32:55.787Z,21.40
2022-12-27T04:36:04.300Z,21.39
2022-12-27T04:39:09.244Z,21.40
2022-12-27T04:42:31.440Z,21.38
2022-12-27T04:45:51.932Z,21.33
2022-12-27T04:49:12.287Z,21.40
2022-12-27T04:52:34.623Z,21.40
2022-12-27T04:55:38.090Z,21.38
2022-12-27T04:59:02.531Z,21.38
2022-12-27T05:02:04.791Z,21.39
2022-12-27T05:05:09.824Z,21.38
2022-12-27T05:08:33.007Z,21.38
2022-12-27T05:11:53.543Z,21.39
2022-12-27T05:14:57.985Z,21.36
2022-12-27T05:18:01.138Z,21.26
2022-12-27T05:21:04.980Z,21.38
2022-12-27T05:24:26.082Z,21.31
2022-12-27T05:27:30.629Z,21.26
2022-12-27T05:30:35.601Z,21.37
2022-12-27T05:33:38.648Z,21.34
2022-12-27T05:36:41.655Z,21.38
2022-12-27T05:39:44.659Z,21.35
2022-12-27T05:42:47.694Z,21.38
2022-12-27T05:45:52.178Z,21.38
2022-12-27T05:48:55.171Z,21.39
2022-12-27T05:51:58.210Z,21.38
2022-12-27T05:55:01.231Z,21.38
2022-12-27T05:58:04.516Z,21.39
2022-12-27T06:01:11.574Z,21.33
2022-12-27T06:04:14.845Z,21.38
2022-12-27T06:07:17.980Z,21.37
2022-12-27T06:10:21.461Z,21.37
2022-12-27T06:13:24.523Z,21.37
2022-12-27T06:16:29.082Z,21.36
2022-12-27T06:19:32.156Z,21.36
2022-12-27T06:22:35.199Z,21.32
2022-12-27T06:25:39.083Z,21.31
2022-12-27T06:28:42.569Z,21.33
2022-12-27T06:31:47.087Z,21.34
2022-12-27T06:34:50.131Z,21.26
2022-12-27T06:37:53.142Z,21.33
2022-12-27T06:41:02.135Z,21.34
2022-12-27T06:44:05.400Z,21.34
2022-12-27T06:47:09.872Z,21.35
2022-12-27T06:50:12.919Z,21.32
2022-12-27T06:53:15.966Z,21.36
2022-12-27T06:56:21.757Z,21.38
2022-12-27T06:59:24.867Z,21.37
2022-12-27T07:02:29.352Z,21.45
2022-12-27T07:05:32.642Z,21.78
2022-12-27T07:08:37.243Z,22.07
2022-12-27T07:11:40.275Z,22.30
2022-12-27T07:14:43.745Z,22.41
2022-12-27T07:17:48.260Z,22.12
2022-12-27T07:20:51.559Z,21.97
2022-12-27T07:23:55.124Z,21.83
2022-12-27T07:26:58.272Z,21.79
2022-12-27T07:30:01.222Z,21.74
2022-12-27T07:33:06.058Z,21.69
2022-12-27T07:36:12.708Z,21.66
2022-12-27T07:39:15.871Z,21.65
2022-12-27T07:42:18.991Z,21.65
2022-12-27T07:45:22.127Z,21.57
2022-12-27T07:48:26.665Z,21.59
2022-12-27T07:51:30.104Z,21.56
2022-12-27T07:54:33.553Z,21.74
2022-12-27T07:57:36.580Z,21.87
2022-12-27T08:00:39.769Z,21.95
2022-12-27T08:03:44.453Z,22.03
2022-12-27T08:06:48.313Z,22.02
2022-12-27T08:09:52.043Z,22.03
2022-12-27T08:12:55.192Z,22.03
2022-12-27T08:15:58.225Z,22.06
2022-12-27T08:19:08.181Z,22.08
2022-12-27T08:22:11.898Z,22.18
2022-12-27T08:25:14.984Z,22.11
2022-12-27T08:28:19.705Z,22.13
2022-12-27T08:31:23.088Z,22.20
2022-12-27T08:34:29.158Z,22.23
2022-12-27T08:37:32.530Z,22.15
2022-12-27T08:40:35.801Z,22.06
2022-12-27T08:43:38.854Z,22.18
2022-12-27T08:46:42.197Z,22.15
2022-12-27T08:49:46.724Z,22.20
2022-12-27T08:52:49.791Z,22.21
2022-12-27T08:55:52.781Z,22.16
2022-12-27T08:58:55.936Z,22.11
2022-12-27T09:01:59.174Z,22.08
2022-12-27T09:05:03.687Z,22.05
2022-12-27T09:08:07.216Z,22.01
2022-12-27T09:11:12.621Z,22.01
2022-12-27T09:14:15.769Z,22.00
2022-12-27T09:17:18.840Z,22.02
2022-12-27T09:20:23.289Z,22.03
2022-12-27T09:23:26.702Z,22.02
2022-12-27T09:26:32.095Z,21.96
2022-12-27T09:29:35.301Z,22.05
2022-12-27T09:32:38.414Z,22.05
2022-12-27T09:35:42.889Z,21.99
2022-12-27T09:38:47.031Z,21.97
2022-12-27T09:45:29.377Z,21.86
2022-12-27T09:48:35.896Z,21.87
2022-12-27T09:51:47.884Z,21.90
2022-12-27T09:55:04.740Z,21.93
2022-12-27T09:58:20.334Z,21.93
2022-12-27T10:01:29.497Z,21.85
2022-12-27T10:05:17.720Z,21.95
2022-12-27T10:08:20.031Z,22.02
2022-12-27T10:11:37.436Z,21.99
2022-12-27T10:15:01.869Z,22.07
2022-12-27T10:18:15.305Z,22.17
2022-12-27T10:21:22.752Z,22.25
2022-12-27T10:24:36.536Z,22.29
2022-12-27T10:27:41.347Z,22.30
2022-12-27T10:30:45.147Z,22.29
2022-12-27T10:33:50.113Z,22.32
2022-12-27T10:36:54.453Z,22.35
2022-12-27T10:40:05.531Z,22.39
2022-12-27T10:43:18.097Z,22.42
2022-12-27T10:46:30.665Z,22.45
2022-12-27T10:49:36.607Z,22.40
2022-12-27T10:52:39.853Z,22.47
2022-12-27T10:55:44.248Z,22.46
2022-12-27T10:58:54.719Z,22.44
2022-12-27T11:02:18.806Z,22.36
2022-12-27T11:05:24.728Z,22.34
2022-12-27T11:08:28.080Z,22.32
2022-12-27T11:11:32.596Z,22.29
2022-12-27T11:14:37.370Z,22.18
2022-12-27T11:17:44.011Z,22.24
2022-12-27T11:20:50.938Z,22.05
2022-12-27T11:23:59.287Z,22.19
2022-12-27T11:27:05.248Z,22.18
2022-12-27T11:30:22.101Z,22.11
2022-12-27T11:33:31.287Z,22.15
2022-12-27T11:36:38.155Z,22.15
2022-12-27T11:39:43.801Z,21.99
2022-12-27T11:42:53.739Z,22.10
2022-12-27T11:45:58.881Z,22.08
2022-12-27T11:49:05.853Z,22.11
2022-12-27T11:52:37.099Z,22.17
2022-12-27T11:55:54.167Z,22.17
2022-12-27T11:59:44.577Z,22.18
2022-12-27T12:03:26.353Z,22.23
2022-12-27T12:06:45.850Z,22.22
2022-12-27T12:10:12.146Z,22.27
2022-12-27T12:13:49.333Z,22.38
2022-12-27T12:17:06.162Z,22.44
2022-12-27T12:20:23.924Z,22.46
2022-12-27T12:23:50.873Z,22.46
2022-12-27T12:27:19.572Z,22.46
2022-12-27T12:30:39.731Z,22.46
2022-12-27T12:33:59.285Z,22.44
2022-12-27T12:37:20.736Z,22.37
2022-12-27T12:40:42.843Z,22.39
2022-12-27T12:44:11.602Z,22.37
2022-12-27T12:47:30.475Z,22.34
2022-12-27T12:50:52.695Z,22.33
2022-12-27T12:54:09.407Z,22.31
2022-12-27T12:57:27.889Z,22.30
2022-12-27T13:00:48.923Z,22.24
2022-12-27T13:04:02.881Z,21.89
2022-12-27T13:07:40.883Z,22.24
2022-12-27T13:11:05.907Z,22.21
2022-12-27T13:14:25.732Z,22.21
2022-12-27T13:17:37.786Z,22.26
2022-12-27T13:21:01.435Z,22.20
2022-12-27T13:24:23.722Z,22.18
2022-12-27T13:27:40.600Z,22.16
2022-12-27T13:30:58.089Z,22.17
2022-12-27T13:34:12.967Z,22.15
2022-12-27T13:37:26.415Z,22.14
2022-12-27T13:40:44.579Z,22.16
2022-12-27T13:43:57.844Z,22.13
2022-12-27T13:47:41.555Z,22.11
2022-12-27T13:51:05.792Z,22.13
2022-12-27T13:54:52.405Z,22.17
2022-12-27T13:58:35.650Z,22.19
2022-12-27T14:02:08.838Z,22.10
2022-12-27T14:05:53.241Z,22.21
2022-12-27T14:09:36.356Z,22.22
2022-12-27T14:12:58.082Z,22.23
2022-12-27T14:16:32.170Z,22.24
2022-12-27T14:19:53.578Z,22.24
2022-12-27T14:23:33.432Z,22.24
2022-12-27T14:27:04.811Z,22.26
2022-12-27T14:30:33.203Z,22.24
2022-12-27T14:34:10.980Z,22.21
2022-12-27T14:37:46.174Z,22.24
2022-12-27T14:41:13.983Z,22.18
2022-12-27T14:44:53.351Z,22.14
2022-12-27T14:48:30.730Z,22.15
2022-12-27T14:52:12.424Z,22.19
2022-12-27T14:55:41.103Z,22.19
2022-12-27T14:58:56.529Z,22.14
2022-12-27T15:02:14.376Z,22.06
2022-12-27T15:05:35.508Z,22.11
2022-12-27T15:09:03.876Z,22.05
2022-12-27T15:12:23.897Z,22.01
2022-12-27T15:15:42.282Z,21.99
2022-12-27T15:19:02.326Z,21.97
2022-12-27T15:22:16.638Z,21.99
2022-12-27T15:25:30.698Z,22.00
2022-12-27T15:28:57.008Z,21.74
2022-12-27T15:32:11.238Z,21.97
2022-12-27T15:35:35.591Z,21.94
2022-12-27T15:38:51.206Z,21.95
2022-12-27T15:42:03.093Z,21.84
2022-12-27T15:45:17.613Z,21.93
2022-12-27T15:48:51.641Z,21.93
2022-12-27T15:52:05.425Z,21.92
2022-12-27T15:55:23.705Z,21.85
2022-12-27T15:58:28.209Z,21.94
2022-12-27T16:01:32.012Z,21.94
2022-12-27T16:04:50.399Z,21.81
2022-12-27T16:08:15.072Z,21.94
2022-12-27T16:11:18.454Z,21.99
2022-12-27T16:14:30.080Z,22.03
2022-12-27T16:17:40.779Z,22.05
2022-12-27T16:20:56.208Z,22.00
2022-12-27T16:24:07.560Z,22.06
2022-12-27T16:27:28.612Z,22.03
2022-12-27T16:30:37.122Z,22.07
2022-12-27T16:33:41.910Z,22.04
2022-12-27T16:36:48.474Z,22.09
2022-12-27T16:40:02.932Z,22.10
2022-12-27T16:43:38.048Z,22.05
2022-12-27T16:47:06.049Z,21.99
2022-12-27T16:50:35.962Z,22.01
2022-12-27T16:54:07.026Z,22.03
2022-12-27T16:57:39.337Z,22.01
2022-12-27T17:00:44.028Z,22.00
2022-12-27T17:03:49.297Z,22.01
2022-12-27T17:06:58.507Z,22.03
2022-12-27T17:10:42.109Z,21.97
2022-12-27T17:13:50.770Z,21.99
2022-12-27T17:16:58.293Z,21.98
2022-12-27T17:20:04.789Z,21.94
2022-12-27T17:23:09.206Z,21.97
2022-12-27T17:26:39.360Z,21.97
2022-12-27T17:30:18.831Z,21.90
2022-12-27T17:33:41.153Z,21.98
2022-12-27T17:36:54.234Z,21.98
2022-12-27T17:40:10.622Z,21.98
2022-12-27T17:43:46.509Z,21.98
2022-12-27T17:46:56.249Z,21.95
2022-12-27T17:50:01.823Z,21.98
2022-12-27T17:53:36.014Z,21.97
2022-12-27T17:57:02.174Z,21.96
2022-12-27T18:00:08.292Z,21.96
2022-12-27T18:03:15.108Z,21.91
2022-12-27T18:06:20.381Z,21.89
2022-12-27T18:09:47.107Z,21.90
2022-12-27T18:12:53.624Z,22.01
2022-12-27T18:15:59.349Z,22.04
2022-12-27T18:19:03.218Z,22.07
2022-12-27T18:22:06.451Z,22.05
2022-12-27T18:25:24.807Z,22.13
2022-12-27T18:28:33.460Z,22.16
2022-12-27T18:31:45.953Z,22.19
2022-12-27T18:34:54.893Z,22.15
2022-12-27T18:37:58.189Z,22.10
2022-12-27T18:41:07.206Z,22.11
2022-12-27T18:44:18.775Z,22.06
2022-12-27T18:47:28.836Z,22.07
2022-12-27T18:50:34.601Z,22.08
2022-12-27T18:53:40.354Z,22.08
2022-12-27T18:56:44.348Z,22.00
2022-12-27T19:00:01.723Z,22.00
2022-12-27T19:03:17.181Z,22.08
2022-12-27T19:06:20.332Z,22.07
2022-12-27T19:09:26.944Z,22.04
2022-12-27T19:12:34.637Z,22.06
2022-12-27T19:15:43.185Z,21.92
2022-12-27T19:18:53.707Z,22.04
2022-12-27T19:21:57.581Z,22.04
2022-12-27T19:25:01.175Z,22.01
2022-12-27T19:28:07.540Z,22.07
2022-12-27T19:31:18.436Z,22.10
2022-12-27T19:34:24.391Z,22.18
2022-12-27T19:37:29.480Z,22.19
2022-12-27T19:40:32.773Z,22.21
2022-12-27T19:43:39.416Z,22.21
2022-12-27T19:46:42.625Z,22.21
2022-12-27T19:49:47.189Z,22.22
2022-12-27T19:52:50.798Z,22.23
2022-12-27T19:55:54.003Z,22.24
2022-12-27T19:58:57.080Z,22.23
2022-12-27T20:02:00.392Z,22.25
2022-12-27T20:05:05.081Z,22.26
2022-12-27T20:08:19.390Z,22.25
2022-12-27T20:11:23.969Z,22.26
2022-12-27T20:14:26.946Z,22.26
2022-12-27T20:17:32.568Z,22.21
2022-12-27T20:20:38.770Z,22.18
2022-12-27T20:23:41.836Z,22.14
2022-12-27T20:26:44.988Z,22.19
2022-12-27T20:29:48.069Z,22.16
2022-12-27T20:32:51.579Z,22.13
2022-12-27T20:35:59.506Z,22.10
2022-12-27T20:39:02.560Z,22.13
2022-12-27T20:42:05.958Z,22.11
2022-12-27T20:45:10.050Z,22.10
2022-12-27T20:48:13.518Z,22.15
2022-12-27T20:51:19.656Z,22.16
2022-12-27T20:54:23.168Z,22.17
2022-12-27T20:57:26.392Z,22.16
2022-12-27T21:00:29.497Z,22.12
2022-12-27T21:03:32.598Z,22.13
2022-12-27T21:06:37.463Z,22.13
2022-12-27T21:09:40.528Z,22.14
2022-12-27T21:12:43.529Z,22.13
2022-12-27T21:15:47.368Z,22.13
2022-12-27T21:18:51.027Z,22.08
2022-12-27T21:21:55.453Z,22.15
2022-12-27T21:24:58.398Z,22.15
2022-12-27T21:28:01.520Z,22.17
2022-12-27T21:31:05.891Z,22.11
2022-12-27T21:34:08.988Z,22.13
2022-12-27T21:37:13.780Z,22.11
2022-12-27T21:40:16.882Z,22.11
2022-12-27T21:43:19.920Z,22.13
2022-12-27T21:46:25.311Z,22.07
2022-12-27T21:49:28.616Z,22.04
2022-12-27T21:52:33.008Z,22.03
2022-12-27T21:55:35.990Z,22.00
2022-12-27T21:58:40.511Z,21.98
2022-12-27T22:01:50.625Z,21.95
2022-12-27T22:04:55.269Z,21.90
2022-12-27T22:07:59.744Z,21.90
2022-12-27T22:11:02.714Z,21.88
2022-12-27T22:14:06.212Z,21.86
2022-12-27T22:17:09.409Z,21.85
2022-12-27T22:20:12.978Z,21.85
2022-12-27T22:23:17.920Z,21.80
2022-12-27T22:26:22.897Z,21.83
2022-12-27T22:29:29.376Z,21.82
2022-12-27T22:32:36.300Z,21.82
2022-12-27T22:35:39.332Z,21.81
2022-12-27T22:38:49.170Z,21.79
2022-12-27T22:41:52.586Z,21.79
2022-12-27T22:44:55.620Z,21.80
2022-12-27T22:47:58.657Z,21.79
2022-12-27T22:51:07.933Z,21.77
2022-12-27T22:54:12.485Z,21.79
2022-12-27T22:57:15.441Z,21.75
2022-12-27T23:00:18.635Z,21.77
2022-12-27T23:03:21.612Z,21.77
2022-12-27T23:06:25.765Z,21.76
2022-12-27T23:09:30.825Z,21.67
2022-12-27T23:12:33.806Z,21.73
2022-12-27T23:15:36.952Z,21.73
2022-12-27T23:18:40.612Z,21.73
2022-12-27T23:21:43.797Z,21.73
2022-12-27T23:24:48.211Z,21.73
2022-12-27T23:27:51.234Z,21.72
2022-12-27T23:30:54.391Z,21.72
2022-12-27T23:33:57.459Z,21.71
2022-12-27T23:37:01.253Z,21.71
2022-12-27T23:40:06.774Z,21.72
2022-12-27T23:43:50.022Z,21.69
2022-12-27T23:46:34.876Z,21.71
2022-12-27T23:49:37.875Z,21.69
2022-12-27T23:52:40.904Z,21.70
2022-12-27T23:55:45.320Z,21.66
2022-12-27T23:58:50.001Z,21.69
